Krupp, Washington
Current Conditions -  °F | °C
As of 10:52 AM on Thursday 23 Oct 2014 (Local Time) from KMWH Reporting Station
Overcast Overcast  
Wind Chill: 57°   Ceiling: 10000
Heat Index: 57°   Visibility: 10mi
Dew Point: 50°   Wind: 9mph
Humidity: 77%   Direction: 190°S
Pressure: 29.78"   Gusts: NA
Location:  47.3463°N, 119.014°W
Report Text: KMWH 231752Z 19008KT 10SM FEW043 SCT070 OVC100 14/10 A2978 RMK AO2 SLP081 60001 T01390100 10139 20106 53001
Loading
Personal Weather Stations






























Interactive Weather Map
Tropical Storm Tracking
New forecast layout! Learn more

10-Day Weather Forecast

Advertisements
Track Severe Weather on mobile